Terminal Aerodrome Forecast
Issued by NWS Goodland, KS

Home | Current Version | Previous Version | Text Only | Print | Product List | Glossary On
Versions: 1 2 3 4 5 6 7 8 9 10 11 12 13 14
814
FTUS43 KGLD 200251 AAA
TAFGLD
TAF AMD
KGLD 200251Z 2003/2024 19020G30KT P6SM OVC150 WS020/18050KT
     FM200400 18014KT P6SM SCT200 WS020/18050KT
     FM200800 24012KT P6SM FEW250
     FM201200 31015G25KT P6SM FEW200
     FM201800 35015G25KT P6SM SCT200=

USA.gov is the U.S. government's official web portal to all federal, state and local government web resources and services.